Hill Church, Pennsylvania
Current Conditions -  °F | °C
As of 8:54 AM on Saturday 22 Nov 2014 (Local Time) from KPTW Reporting Station
Clear Clear  
Wind Chill: 26°   Ceiling: Unl
Heat Index: 26°   Visibility: 10mi
Dew Point: 14°   Wind: 3mph
Humidity: 60%   Direction: 190°S
Pressure: 30.49"   Gusts: NA
Location:  40.3481°N, 75.6818°W
Report Text: KPTW 221354Z AUTO 19003KT 10SM CLR M03/M10 A3049 RMK AO2 SLP328 T10331100
Loading
Personal Weather Stations






























Interactive Weather Map New forecast layout! Learn more

10-Day Weather Forecast

Advertisements
Track Severe Weather on mobile